TRA82K EHAM-LGIR
Flight info
| Callsign | TRA82K |
|---|---|
| Flight time | N/A |
| Altitude | 35000 |
| Route | EDUPO Z739 MISGO DCT DOJOH DCT DODEN DCT NEGIX DCT DINKU M867 XERUM DCT BAVAX DCT RADIZ DCT NIPEL DCT ABISO DCT NEMEK DCT VRANA DCT PETAK DCT PINDO UL607 GIVIS T514 XAVIS |
| Aircraft | A21N/M-SDE2E3FGHIJ1RWXY/LB1 |
Departure
| Time | 2026-04-17 08:26 |
|---|---|
| Airport | Amsterdam Airport Schiphol (EHAM) |
Arrival
| Time | N/A |
|---|---|
| Airport | Heraklion International Nikos Kazantzakis Airport (LGIR) |
| Time | Latitude | Longitude | Altitude | Speed | Heading |
|---|---|---|---|---|---|
| 2026-04-17 08:05 | 52.30668 | 4.76599 | 3 ft | 0 kts | 248° |
| 2026-04-17 08:10 | 52.30668 | 4.76600 | 2 ft | 0 kts | 248° |
| 2026-04-17 08:17 | 52.30675 | 4.76630 | 2 ft | 4 kts | 258° |
| 2026-04-17 08:17 | 52.30680 | 4.76672 | 2 ft | 4 kts | 252° |
| 2026-04-17 08:18 | 52.30693 | 4.76707 | 2 ft | 4 kts | 211° |
| 2026-04-17 08:18 | 52.30717 | 4.76720 | 2 ft | 4 kts | 182° |
| 2026-04-17 08:18 | 52.30726 | 4.76721 | 2 ft | 0 kts | 180° |
| 2026-04-17 08:19 | 52.30726 | 4.76720 | 2 ft | 0 kts | 180° |
| 2026-04-17 08:19 | 52.30726 | 4.76721 | 2 ft | 0 kts | 180° |
| 2026-04-17 08:20 | 52.30726 | 4.76720 | 2 ft | 0 kts | 180° |
| 2026-04-17 08:20 | 52.30726 | 4.76721 | 2 ft | 0 kts | 180° |
| 2026-04-17 08:21 | 52.30709 | 4.76720 | 2 ft | 8 kts | 180° |
| 2026-04-17 08:21 | 52.30652 | 4.76755 | 2 ft | 10 kts | 147° |
| 2026-04-17 08:21 | 52.30631 | 4.76840 | 2 ft | 9 kts | 66° |
| 2026-04-17 08:21 | 52.30653 | 4.76950 | 2 ft | 12 kts | 90° |
| 2026-04-17 08:22 | 52.30651 | 4.77097 | 2 ft | 15 kts | 94° |
| 2026-04-17 08:22 | 52.30643 | 4.77282 | 2 ft | 18 kts | 94° |
| 2026-04-17 08:22 | 52.30640 | 4.77454 | 2 ft | 13 kts | 84° |
| 2026-04-17 08:22 | 52.30671 | 4.77592 | 2 ft | 13 kts | 20° |
| 2026-04-17 08:23 | 52.30770 | 4.77597 | 2 ft | 16 kts | 4° |
| 2026-04-17 08:23 | 52.30895 | 4.77610 | 2 ft | 20 kts | 4° |
| 2026-04-17 08:23 | 52.31042 | 4.77625 | 2 ft | 23 kts | 4° |
| 2026-04-17 08:23 | 52.31196 | 4.77638 | 2 ft | 25 kts | 3° |
| 2026-04-17 08:24 | 52.31375 | 4.77653 | 2 ft | 26 kts | 2° |
| 2026-04-17 08:24 | 52.31519 | 4.77551 | 2 ft | 14 kts | 332° |
| 2026-04-17 08:24 | 52.31581 | 4.77614 | 2 ft | 12 kts | 58° |
| 2026-04-17 08:24 | 52.31592 | 4.77752 | 2 ft | 14 kts | 86° |
| 2026-04-17 08:25 | 52.31596 | 4.77919 | 3 ft | 12 kts | 90° |
| 2026-04-17 08:25 | 52.31587 | 4.77956 | 4 ft | 6 kts | 147° |
| 2026-04-17 08:25 | 52.31468 | 4.77956 | 4 ft | 41 kts | 183° |
| 2026-04-17 08:25 | 52.30989 | 4.77908 | -1 ft | 96 kts | 184° |
| 2026-04-17 08:26 | 52.30126 | 4.77833 | 33 ft | 146 kts | 184° |
| 2026-04-17 08:26 | 52.29131 | 4.77748 | 496 ft | 148 kts | 183° |
| 2026-04-17 08:26 | 52.28087 | 4.77667 | 1066 ft | 150 kts | 185° |
| 2026-04-17 08:26 | 52.27054 | 4.77634 | 1686 ft | 152 kts | 175° |